NH66 weather

Temple Heliport
Temple, New Hampshire, United States

Public forecast

Using degrees Fahrenheit for public forecast. Weather courtesy of forecast.io.

METAR (pilot weather report)

Closest report is Jaffrey Airport Silver Ranch Airport, 7.5 nm (13.9 km) W. Retrieved 2019/07/15 18:52 UTC (46 minutes ago):

KAFN 151852Z AUTO 32008KT 260V010 10SM SCT055 27/09 A3004 RMK AO2 SLP172 T02670094

TAF (pilot weather forecast)

Closest forecast is Manchester-Boston Regional Airport, 19.5 nm (36.2 km) ENE. Retrieved 2019/07/15 18:22 UTC (1 hour ago):

TAF KMHT 151720Z 1518/1618 30010G17KT P6SM FEW050 FM152300 32007KT P6SM SKC FM161500 22006KT P6SM SKC